Time;durP1;ratioP1;P1;durP2;ratioP2;P2;SDS_P1;SDS_P2;PMS_P1;PMS_P2;Temp;Humidity;BMP_temperature;BMP_pressure;BME280_temperature;BME280_humidity;BME280_pressure;Samples;Min_cycle;Max_cycle;Signal;HPM_P1;HPM_P2
2022/12/31 00:00:29;;;;;;;0.63;0.30;;;12.50;99.90;;;;;;5093286;28;20027;-68
2022/12/31 00:02:55;;;;;;;0.50;0.32;;;12.50;99.90;;;;;;5092800;28;20476;-68
2022/12/31 00:05:21;;;;;;;1.05;0.50;;;12.50;99.90;;;;;;5093499;28;20035;-68
2022/12/31 00:07:47;;;;;;;0.70;0.40;;;12.50;99.90;;;;;;5074609;28;20048;-67
2022/12/31 00:10:13;;;;;;;0.40;0.40;;;12.50;99.90;;;;;;5093176;28;20421;-67
2022/12/31 00:12:38;;;;;;;1.60;0.25;;;12.50;99.90;;;;;;5089297;28;20092;-67
2022/12/31 00:15:05;;;;;;;0.82;0.70;;;12.50;99.90;;;;;;5092333;28;20040;-68
2022/12/31 00:17:31;;;;;;;0.98;0.47;;;12.50;99.90;;;;;;5089289;28;20423;-67
2022/12/31 00:19:57;;;;;;;0.63;0.50;;;12.50;99.90;;;;;;5090827;28;20020;-67
2022/12/31 00:22:22;;;;;;;0.40;0.40;;;12.50;99.90;;;;;;5089474;28;20073;-67
2022/12/31 00:24:48;;;;;;;2.17;0.50;;;12.50;99.90;;;;;;5090729;28;20036;-67
2022/12/31 00:27:15;;;;;;;2.20;0.50;;;12.60;99.90;;;;;;5092164;28;20124;-67
2022/12/31 00:29:40;;;;;;;0.88;0.40;;;12.50;99.90;;;;;;5088969;28;20033;-67
2022/12/31 00:32:06;;;;;;;0.35;0.20;;;12.60;99.90;;;;;;5091855;28;20420;-67
2022/12/31 00:34:31;;;;;;;0.82;0.50;;;12.80;99.90;;;;;;5090955;28;20049;-67
2022/12/31 00:36:57;;;;;;;0.75;0.50;;;12.80;99.90;;;;;;5091609;28;20023;-68
2022/12/31 00:39:23;;;;;;;0.38;0.35;;;12.80;99.90;;;;;;5091766;28;20026;-68
2022/12/31 00:41:48;;;;;;;1.55;0.30;;;12.80;99.90;;;;;;5091136;28;20255;-67
2022/12/31 00:44:14;;;;;;;0.30;0.30;;;12.90;99.90;;;;;;5090974;28;20024;-67
2022/12/31 00:46:40;;;;;;;1.27;0.57;;;12.80;99.90;;;;;;5088883;28;20028;-67
2022/12/31 00:49:06;;;;;;;0.35;0.30;;;12.80;99.90;;;;;;5091517;28;20074;-67
2022/12/31 00:51:32;;;;;;;0.52;0.52;;;12.80;99.90;;;;;;5088517;28;20028;-68
2022/12/31 00:53:58;;;;;;;0.47;0.47;;;12.80;99.90;;;;;;5091671;28;20027;-68
2022/12/31 00:56:27;;;;;;;3.00;0.50;;;12.80;99.90;;;;;;5091375;28;20133;-68
2022/12/31 00:58:53;;;;;;;0.70;0.60;;;12.80;99.90;;;;;;5088684;28;20027;-68
2022/12/31 01:01:28;;;;;;;0.50;0.50;;;12.80;99.90;;;;;;5091329;28;20032;-68
2022/12/31 01:03:57;;;;;;;1.30;0.90;;;12.80;99.90;;;;;;5086887;28;20024;-67
2022/12/31 01:06:23;;;;;;;0.83;0.50;;;12.80;99.90;;;;;;5091586;28;20032;-67
2022/12/31 01:08:50;;;;;;;1.20;0.47;;;12.80;99.90;;;;;;5089952;28;20171;-67
2022/12/31 01:11:23;;;;;;;0.98;0.60;;;12.80;99.90;;;;;;5090684;28;20086;-67
2022/12/31 01:14:02;;;;;;;0.47;0.47;;;12.80;99.90;;;;;;5089748;28;20032;-67
2022/12/31 01:16:39;;;;;;;1.48;0.60;;;12.90;99.90;;;;;;5090516;28;20020;-69
2022/12/31 01:19:08;;;;;;;1.35;0.95;;;13.10;99.90;;;;;;5090763;28;20038;-68
2022/12/31 01:21:35;;;;;;;1.52;0.60;;;13.20;99.90;;;;;;5087221;28;20016;-68
2022/12/31 01:24:01;;;;;;;2.35;0.68;;;13.20;99.90;;;;;;5090066;28;20043;-68
2022/12/31 01:26:27;;;;;;;0.60;0.30;;;13.30;99.90;;;;;;5090482;28;20028;-68
2022/12/31 01:28:53;;;;;;;0.43;0.43;;;13.30;99.90;;;;;;5089652;28;20020;-68
2022/12/31 01:31:20;;;;;;;2.47;0.60;;;13.30;99.90;;;;;;5091004;28;20506;-68
2022/12/31 01:33:46;;;;;;;1.20;0.40;;;13.30;99.90;;;;;;5090787;28;20039;-68
2022/12/31 01:36:14;;;;;;;1.45;0.30;;;13.40;99.90;;;;;;5091864;28;20066;-67
2022/12/31 01:38:41;;;;;;;0.82;0.40;;;13.50;99.90;;;;;;5085814;28;20062;-67
2022/12/31 01:41:13;;;;;;;1.13;0.50;;;13.40;99.90;;;;;;5091591;28;20043;-68
2022/12/31 01:43:49;;;;;;;0.68;0.38;;;13.50;99.90;;;;;;5090750;28;20090;-68
2022/12/31 01:46:31;;;;;;;0.60;0.55;;;13.50;99.90;;;;;;5078014;28;20012;-68
2022/12/31 01:49:03;;;;;;;0.82;0.38;;;13.50;99.90;;;;;;5089960;28;20028;-67
2022/12/31 01:51:34;;;;;;;1.02;0.50;;;13.50;99.90;;;;;;5088427;28;20024;-67
2022/12/31 01:53:59;;;;;;;;;;;13.50;99.90;;;;;;5087772;28;20028;-67
2022/12/31 01:56:25;;;;;;;1.65;0.50;;;13.50;99.90;;;;;;5086957;28;19950;-68
2022/12/31 01:58:54;;;;;;;0.47;0.28;;;13.50;99.90;;;;;;5088543;28;20028;-68
2022/12/31 02:01:25;;;;;;;1.95;0.50;;;13.50;99.90;;;;;;5087916;28;20066;-68
2022/12/31 02:03:51;;;;;;;;;;;13.50;99.90;;;;;;5088927;28;20465;-68
2022/12/31 02:06:22;;;;;;;1.00;0.60;;;13.50;99.90;;;;;;5090233;28;19915;-68
2022/12/31 02:08:48;;;;;;;2.20;0.60;;;13.50;99.90;;;;;;5088923;28;20782;-68
2022/12/31 02:11:35;;;;;;;0.68;0.50;;;13.50;99.90;;;;;;5090246;28;20028;-67
2022/12/31 02:14:14;;;;;;;0.40;0.40;;;13.40;99.90;;;;;;5089457;28;20027;-67
2022/12/31 02:17:03;;;;;;;0.30;0.20;;;13.50;99.90;;;;;;5086420;28;20028;-68
2022/12/31 02:20:10;;;;;;;1.40;0.40;;;13.50;99.90;;;;;;5088288;28;20016;-67
2022/12/31 02:23:07;;;;;;;0.50;0.50;;;13.50;99.90;;;;;;5088312;28;20067;-68
2022/12/31 02:26:00;;;;;;;1.08;0.40;;;13.50;99.90;;;;;;5088147;28;20028;-68
2022/12/31 02:29:00;;;;;;;0.75;0.55;;;13.30;99.90;;;;;;5085099;28;20073;-68
2022/12/31 02:31:47;;;;;;;0.70;0.40;;;13.30;99.90;;;;;;5088329;28;20028;-68
2022/12/31 02:34:25;;;;;;;0.63;0.45;;;13.40;99.90;;;;;;5088773;28;20024;-67
2022/12/31 02:36:55;;;;;;;0.82;0.47;;;13.50;99.90;;;;;;5087956;28;20388;-68
2022/12/31 02:39:21;;;;;;;0.75;0.30;;;13.60;99.90;;;;;;5086895;28;20117;-68
2022/12/31 02:41:48;;;;;;;2.50;0.38;;;13.60;99.90;;;;;;5088975;28;20143;-68
2022/12/31 02:44:24;;;;;;;1.05;0.32;;;13.70;99.90;;;;;;5087909;28;20024;-68
2022/12/31 02:47:08;;;;;;;1.50;0.55;;;13.60;99.90;;;;;;5086310;28;20020;-68
2022/12/31 02:49:53;;;;;;;0.40;0.40;;;13.60;99.90;;;;;;5083403;28;20020;-68
2022/12/31 02:52:44;;;;;;;0.50;0.50;;;13.60;99.90;;;;;;5086002;28;20028;-67
2022/12/31 02:55:20;;;;;;;0.57;0.50;;;13.60;99.90;;;;;;5088535;28;20023;-68
2022/12/31 02:57:58;;;;;;;0.40;0.40;;;13.60;99.90;;;;;;5067802;28;20377;-67
2022/12/31 03:03:10;;;;;;;1.30;0.50;;;13.30;99.90;;;;;;5084450;28;20100;-67
2022/12/31 03:05:40;;;;;;;1.35;0.38;;;13.20;99.90;;;;;;5088244;28;20461;-67
2022/12/31 03:08:05;;;;;;;1.20;0.52;;;13.30;99.90;;;;;;5088995;28;20107;-68
2022/12/31 03:10:31;;;;;;;2.70;0.70;;;13.20;99.90;;;;;;5089209;28;20119;-67
2022/12/31 03:12:57;;;;;;;0.80;0.43;;;13.30;99.90;;;;;;5088700;28;20028;-68
2022/12/31 03:15:29;;;;;;;1.48;0.57;;;13.20;99.90;;;;;;5089102;28;20243;-67
2022/12/31 03:18:13;;;;;;;0.85;0.38;;;13.30;99.90;;;;;;5088336;28;20028;-68
2022/12/31 03:23:38;;;;;;;2.30;0.52;;;13.50;99.90;;;;;;5086926;28;20181;-67
2022/12/31 03:26:09;;;;;;;5.07;0.55;;;13.50;99.90;;;;;;5089402;28;20098;-67
2022/12/31 03:28:35;;;;;;;0.82;0.57;;;13.50;99.90;;;;;;5088175;28;20113;-66
2022/12/31 03:31:02;;;;;;;1.25;0.63;;;13.70;99.90;;;;;;5089368;28;20685;-67
2022/12/31 03:33:33;;;;;;;0.55;0.52;;;13.70;99.90;;;;;;5088760;28;20077;-68
2022/12/31 03:36:03;;;;;;;0.55;0.55;;;13.70;99.90;;;;;;5086947;28;20026;-67
2022/12/31 03:38:29;;;;;;;0.65;0.43;;;13.70;99.90;;;;;;5085743;28;20051;-67
2022/12/31 03:40:54;;;;;;;0.98;0.40;;;13.70;99.90;;;;;;5088669;28;20566;-68
2022/12/31 03:43:20;;;;;;;2.38;0.50;;;13.80;99.90;;;;;;5088251;28;20020;-68
2022/12/31 03:45:53;;;;;;;0.73;0.30;;;14.00;99.90;;;;;;5088587;28;20036;-68
2022/12/31 03:48:20;;;;;;;2.22;0.40;;;;;;;;;;5088605;28;20024;-67
2022/12/31 03:50:46;;;;;;;0.43;0.43;;;;;;;;;;5088240;28;20477;-68
2022/12/31 03:53:12;;;;;;;0.65;0.50;;;14.40;99.90;;;;;;5089228;28;20050;-68
2022/12/31 03:55:37;;;;;;;0.85;0.40;;;14.40;99.90;;;;;;5087170;28;20031;-67
2022/12/31 03:58:03;;;;;;;2.42;0.47;;;14.50;99.90;;;;;;5091829;28;20036;-66
2022/12/31 04:00:29;;;;;;;2.38;0.38;;;14.60;99.90;;;;;;5091515;28;20073;-68
2022/12/31 04:02:54;;;;;;;0.95;0.40;;;14.60;99.90;;;;;;5091644;28;20040;-67
2022/12/31 04:05:21;;;;;;;1.60;0.40;;;14.70;99.90;;;;;;5092492;28;20099;-67
2022/12/31 04:07:47;;;;;;;1.33;0.40;;;14.70;99.90;;;;;;5091279;28;20024;-67
2022/12/31 04:10:14;;;;;;;0.50;0.40;;;14.80;99.90;;;;;;5092016;28;20052;-68
2022/12/31 04:12:40;;;;;;;0.45;0.30;;;14.90;99.90;;;;;;5088590;28;20124;-68
2022/12/31 04:15:07;;;;;;;0.95;0.32;;;;;;;;;;5091789;28;20519;-68
2022/12/31 04:17:33;;;;;;;0.35;0.35;;;;;;;;;;5091549;28;20031;-68
2022/12/31 04:19:59;;;;;;;1.05;0.43;;;;;;;;;;5092007;28;20024;-67
2022/12/31 04:22:24;;;;;;;0.95;0.40;;;15.10;99.90;;;;;;5089361;28;20454;-67
2022/12/31 04:24:50;;;;;;;0.63;0.30;;;15.10;99.90;;;;;;5090875;28;20028;-67
2022/12/31 04:27:16;;;;;;;2.20;0.40;;;15.10;99.90;;;;;;5088836;28;20024;-68
2022/12/31 04:29:41;;;;;;;0.35;0.35;;;15.20;99.90;;;;;;5088035;28;20043;-67
2022/12/31 04:32:07;;;;;;;0.60;0.60;;;15.30;99.90;;;;;;5091798;28;20028;-68
2022/12/31 04:34:33;;;;;;;2.05;0.32;;;15.20;99.90;;;;;;5090473;28;20032;-68
2022/12/31 04:36:59;;;;;;;0.32;0.25;;;15.20;99.90;;;;;;5091953;28;20058;-68
2022/12/31 04:39:25;;;;;;;1.92;0.40;;;15.10;99.90;;;;;;5091372;28;20028;-68
2022/12/31 04:41:51;;;;;;;0.70;0.30;;;15.10;99.90;;;;;;5091651;28;20035;-67
2022/12/31 04:44:17;;;;;;;0.20;0.20;;;15.00;99.90;;;;;;5090645;28;20024;-68
2022/12/31 04:46:43;;;;;;;1.52;0.22;;;14.90;99.90;;;;;;5088368;28;20035;-68
2022/12/31 04:49:09;;;;;;;2.50;0.43;;;14.90;99.90;;;;;;5091176;28;20024;-68
2022/12/31 04:51:35;;;;;;;1.00;0.35;;;14.80;99.90;;;;;;5090924;28;20066;-68
2022/12/31 04:54:01;;;;;;;1.38;0.38;;;14.80;99.90;;;;;;5088850;28;20077;-67
2022/12/31 04:56:27;;;;;;;1.50;0.40;;;14.80;99.90;;;;;;5091309;28;20534;-67
2022/12/31 04:58:53;;;;;;;0.77;0.47;;;14.70;99.90;;;;;;5090021;28;20069;-68
2022/12/31 05:01:19;;;;;;;1.27;0.30;;;14.60;99.90;;;;;;5090165;28;20020;-68
2022/12/31 05:03:45;;;;;;;0.82;0.65;;;14.60;99.90;;;;;;5087930;28;20024;-67
2022/12/31 05:06:14;;;;;;;0.40;0.40;;;14.60;99.90;;;;;;5091110;28;20031;-67
2022/12/31 05:08:40;;;;;;;1.13;0.38;;;14.50;99.90;;;;;;5087716;28;20058;-68
2022/12/31 05:11:06;;;;;;;0.32;0.30;;;14.40;99.90;;;;;;5091173;28;20063;-68
2022/12/31 05:13:32;;;;;;;0.88;0.43;;;14.30;99.90;;;;;;5089869;28;20428;-69
2022/12/31 05:15:57;;;;;;;0.35;0.30;;;14.20;99.90;;;;;;5090627;28;20020;-68
2022/12/31 05:18:23;;;;;;;5.72;0.60;;;14.20;99.90;;;;;;5089292;28;20031;-68
2022/12/31 05:20:49;;;;;;;0.57;0.30;;;14.10;99.90;;;;;;5088468;28;20591;-67
2022/12/31 05:23:15;;;;;;;0.40;0.40;;;14.10;99.90;;;;;;5090070;28;20052;-68
2022/12/31 05:25:43;;;;;;;1.17;0.40;;;14.10;99.90;;;;;;5087752;28;20377;-68
2022/12/31 05:28:09;;;;;;;0.80;0.30;;;14.10;99.90;;;;;;5090026;28;20055;-68
2022/12/31 05:30:34;;;;;;;0.47;0.32;;;14.10;99.90;;;;;;5089991;28;20055;-69
2022/12/31 05:33:00;;;;;;;0.93;0.40;;;14.00;99.90;;;;;;5090382;28;20077;-67
2022/12/31 05:35:26;;;;;;;0.85;0.65;;;14.10;99.90;;;;;;5089031;28;20073;-68
2022/12/31 05:37:51;;;;;;;0.55;0.30;;;14.10;99.90;;;;;;5088544;28;20028;-68
2022/12/31 05:40:17;;;;;;;3.13;0.52;;;14.20;99.90;;;;;;5090765;28;20020;-68
2022/12/31 05:42:43;;;;;;;0.93;0.45;;;14.20;99.90;;;;;;5090367;28;20028;-68
2022/12/31 05:45:12;;;;;;;1.30;0.55;;;14.20;99.90;;;;;;5091875;28;20031;-68
2022/12/31 05:47:41;;;;;;;3.47;0.93;;;14.30;99.90;;;;;;5085937;28;20048;-67
2022/12/31 05:50:08;;;;;;;0.30;0.30;;;14.30;99.90;;;;;;5094495;28;20028;-67
2022/12/31 05:52:34;;;;;;;0.57;0.55;;;14.30;99.90;;;;;;5087282;28;20063;-67
2022/12/31 05:55:00;;;;;;;1.08;0.35;;;14.20;99.90;;;;;;5083005;28;20064;-66
2022/12/31 05:57:25;;;;;;;0.57;0.30;;;14.10;99.90;;;;;;5091284;28;20039;-67
2022/12/31 05:59:52;;;;;;;1.27;0.50;;;14.10;99.90;;;;;;5072215;28;20875;-67
2022/12/31 06:02:19;;;;;;;1.35;0.40;;;14.20;99.90;;;;;;5089413;28;20112;-67
2022/12/31 06:04:44;;;;;;;1.75;0.40;;;14.10;99.90;;;;;;5090281;28;20024;-67
2022/12/31 06:07:10;;;;;;;1.25;0.50;;;14.20;99.90;;;;;;5091823;28;20478;-67
2022/12/31 06:09:35;;;;;;;0.52;0.52;;;14.10;99.90;;;;;;5086806;28;20029;-68
2022/12/31 06:12:01;;;;;;;0.60;0.30;;;14.10;99.90;;;;;;5089447;28;20064;-67
2022/12/31 06:14:27;;;;;;;1.75;0.45;;;14.20;99.90;;;;;;5090946;28;20194;-67
2022/12/31 06:16:52;;;;;;;1.70;0.55;;;14.20;99.90;;;;;;5089163;28;20469;-67
2022/12/31 06:19:18;;;;;;;0.73;0.50;;;14.30;99.90;;;;;;5090318;28;20031;-67
2022/12/31 06:21:44;;;;;;;0.50;0.50;;;14.40;99.90;;;;;;5090432;28;20028;-68
2022/12/31 06:24:09;;;;;;;0.90;0.50;;;14.40;99.90;;;;;;5082601;28;20129;-68
2022/12/31 06:26:35;;;;;;;0.68;0.40;;;14.50;99.90;;;;;;5088467;28;20887;-67
2022/12/31 06:29:01;;;;;;;0.52;0.30;;;14.60;99.90;;;;;;5090840;28;20105;-67
2022/12/31 06:31:26;;;;;;;1.25;0.95;;;14.60;99.90;;;;;;5091110;28;20055;-67
2022/12/31 06:33:52;;;;;;;0.82;0.50;;;14.70;99.90;;;;;;5071462;28;20067;-68
2022/12/31 06:36:18;;;;;;;0.30;0.30;;;14.70;99.90;;;;;;5090756;28;20031;-68
2022/12/31 06:38:44;;;;;;;1.25;0.50;;;14.70;99.90;;;;;;5090142;28;20024;-67
2022/12/31 06:41:12;;;;;;;0.50;0.47;;;14.70;99.90;;;;;;5090896;28;20465;-68
2022/12/31 06:43:38;;;;;;;1.92;0.52;;;14.70;99.90;;;;;;5086365;28;20481;-67
2022/12/31 06:46:06;;;;;;;1.17;0.40;;;14.80;99.90;;;;;;5089101;28;20034;-68
2022/12/31 06:48:33;;;;;;;0.30;0.30;;;14.90;99.90;;;;;;5089542;28;20419;-67
2022/12/31 06:51:17;;;;;;;0.68;0.40;;;14.90;99.90;;;;;;5095023;28;20742;-67
2022/12/31 06:53:47;;;;;;;0.75;0.38;;;14.90;99.90;;;;;;5089509;28;20440;-67
2022/12/31 06:56:16;;;;;;;3.97;0.45;;;14.90;99.90;;;;;;5090478;28;20111;-67
2022/12/31 06:58:42;;;;;;;3.53;0.50;;;15.00;99.90;;;;;;5088656;28;20040;-68
2022/12/31 07:01:13;;;;;;;0.43;0.40;;;14.90;99.90;;;;;;5090488;28;20028;-68
2022/12/31 07:03:50;;;;;;;0.85;0.45;;;14.90;99.90;;;;;;5089407;28;20031;-67
2022/12/31 07:06:26;;;;;;;1.85;0.30;;;14.90;99.90;;;;;;5090877;28;20020;-67
2022/12/31 07:09:21;;;;;;;0.30;0.30;;;14.80;99.90;;;;;;5089339;28;20123;-68
2022/12/31 07:12:01;;;;;;;1.95;0.30;;;14.80;99.90;;;;;;5090092;28;20381;-68
2022/12/31 07:14:39;;;;;;;1.70;0.40;;;14.70;99.90;;;;;;5080942;28;20048;-68
2022/12/31 07:17:30;;;;;;;8.30;0.73;;;14.70;99.90;;;;;;5089397;28;20028;-68
2022/12/31 07:20:08;;;;;;;0.70;0.30;;;14.70;99.90;;;;;;5053990;28;20044;-68
2022/12/31 07:22:33;;;;;;;2.72;0.40;;;14.70;99.90;;;;;;5085730;28;20094;-67
2022/12/31 07:24:59;;;;;;;1.75;0.28;;;14.70;99.90;;;;;;5089908;28;20512;-67
2022/12/31 07:28:04;;;;;;;1.13;0.30;;;14.70;99.90;;;;;;5089467;28;20065;-67
2022/12/31 07:30:47;;;;;;;0.63;0.43;;;14.80;99.90;;;;;;5091547;28;20047;-67
2022/12/31 07:33:18;;;;;;;0.68;0.30;;;14.80;99.90;;;;;;5093162;28;20056;-68
2022/12/31 07:35:52;;;;;;;1.30;0.40;;;14.80;99.90;;;;;;5089952;28;20036;-67
2022/12/31 07:38:41;;;;;;;1.85;0.52;;;14.90;99.90;;;;;;5093383;28;20471;-68
2022/12/31 07:41:22;;;;;;;1.05;0.20;;;15.10;99.90;;;;;;5092321;28;20107;-68
2022/12/31 07:44:20;;;;;;;0.30;0.30;;;15.10;99.90;;;;;;5072098;28;20043;-68
2022/12/31 07:46:54;;;;;;;0.47;0.40;;;15.10;99.90;;;;;;5092765;28;20047;-68
2022/12/31 07:49:20;;;;;;;0.40;0.40;;;15.20;99.90;;;;;;5093619;28;20031;-68
2022/12/31 07:51:46;;;;;;;1.92;0.50;;;15.20;99.90;;;;;;5091210;28;20028;-68
2022/12/31 07:54:12;;;;;;;1.85;0.40;;;15.30;99.90;;;;;;5089642;28;20032;-68
2022/12/31 07:56:38;;;;;;;1.23;0.50;;;15.30;99.90;;;;;;5092780;28;20103;-68
2022/12/31 07:59:17;;;;;;;1.40;0.60;;;15.40;99.90;;;;;;5091583;28;20111;-68
2022/12/31 08:02:03;;;;;;;1.95;0.45;;;15.40;99.90;;;;;;5093276;28;20036;-68
2022/12/31 08:04:55;;;;;;;0.52;0.32;;;15.40;99.90;;;;;;5087026;28;20016;-68
2022/12/31 08:07:35;;;;;;;0.85;0.40;;;15.40;99.90;;;;;;5093876;28;20039;-68
2022/12/31 08:10:38;;;;;;;0.40;0.20;;;15.40;99.90;;;;;;5074961;28;20034;-68
2022/12/31 08:13:09;;;;;;;0.90;0.50;;;15.40;99.90;;;;;;5092865;28;20032;-68
2022/12/31 08:15:36;;;;;;;0.40;0.30;;;15.40;99.90;;;;;;5091569;28;20392;-68
2022/12/31 08:18:02;;;;;;;1.80;0.32;;;15.40;99.90;;;;;;5091837;28;20114;-67
2022/12/31 08:20:31;;;;;;;0.63;0.40;;;15.40;99.90;;;;;;5093369;28;20103;-67
2022/12/31 08:22:59;;;;;;;0.57;0.40;;;15.50;99.90;;;;;;5084783;28;20055;-67
2022/12/31 08:25:45;;;;;;;1.52;0.60;;;15.60;99.90;;;;;;5091647;28;20020;-67
2022/12/31 08:28:19;;;;;;;2.05;0.47;;;15.60;99.90;;;;;;5091721;28;20042;-67
2022/12/31 08:31:00;;;;;;;2.38;0.60;;;15.60;99.90;;;;;;5092438;28;20028;-68
2022/12/31 08:33:33;;;;;;;;;;;15.70;99.90;;;;;;5088162;28;20048;-68
2022/12/31 08:36:17;;;;;;;4.13;0.40;;;15.70;99.90;;;;;;5081427;28;20357;-67
2022/12/31 08:38:55;;;;;;;0.52;0.40;;;15.70;99.90;;;;;;5073216;28;20035;-68
2022/12/31 08:41:29;;;;;;;0.70;0.60;;;15.70;99.90;;;;;;5091341;28;20078;-67
2022/12/31 08:44:21;;;;;;;1.00;0.57;;;15.80;99.90;;;;;;5078134;28;20436;-67
2022/12/31 08:46:53;;;;;;;0.40;0.40;;;15.80;99.90;;;;;;5092372;28;20039;-68
2022/12/31 08:49:19;;;;;;;2.00;0.57;;;15.80;99.90;;;;;;5092360;28;20419;-68
2022/12/31 08:51:45;;;;;;;1.10;0.60;;;15.80;99.90;;;;;;5095995;28;20024;-68
2022/12/31 08:54:11;;;;;;;1.38;0.47;;;15.80;99.90;;;;;;5091899;28;20042;-67
2022/12/31 08:57:02;;;;;;;1.85;0.43;;;15.90;99.90;;;;;;5092030;28;20020;-68
2022/12/31 08:59:48;;;;;;;1.05;0.32;;;16.00;99.90;;;;;;5087974;28;20030;-68
2022/12/31 09:02:37;;;;;;;0.30;0.30;;;16.00;99.90;;;;;;5092090;28;20508;-67
2022/12/31 09:05:20;;;;;;;2.10;0.50;;;16.10;99.90;;;;;;5092581;28;20086;-67
2022/12/31 09:08:16;;;;;;;0.60;0.43;;;16.10;99.90;;;;;;5091382;28;20025;-67
2022/12/31 09:10:52;;;;;;;1.63;0.65;;;16.10;99.90;;;;;;5066702;28;20075;-68
2022/12/31 09:13:40;;;;;;;1.40;0.70;;;16.10;99.90;;;;;;5091979;28;20405;-67
2022/12/31 09:16:12;;;;;;;1.38;0.65;;;16.10;99.90;;;;;;5092590;28;20028;-68
2022/12/31 09:18:41;;;;;;;0.75;0.32;;;16.20;99.90;;;;;;5077551;28;20027;-68
2022/12/31 09:21:13;;;;;;;1.85;0.50;;;16.20;99.90;;;;;;5092361;28;20036;-67
2022/12/31 09:23:39;;;;;;;1.52;0.50;;;16.30;99.90;;;;;;5084029;28;20044;-67
2022/12/31 09:26:47;;;;;;;0.77;0.50;;;16.30;99.90;;;;;;5091843;28;20047;-67
2022/12/31 09:29:41;;;;;;;0.93;0.50;;;16.50;99.90;;;;;;5086227;28;20037;-66
2022/12/31 09:32:23;;;;;;;0.43;0.40;;;16.60;99.90;;;;;;5075871;28;20098;-67
2022/12/31 09:35:02;;;;;;;1.40;0.60;;;16.60;99.90;;;;;;5082890;28;20064;-69
2022/12/31 09:37:55;;;;;;;4.15;0.40;;;16.70;99.90;;;;;;5086966;28;20035;-68
2022/12/31 09:40:23;;;;;;;2.03;0.60;;;16.80;99.90;;;;;;5083433;28;20027;-67
2022/12/31 09:43:17;;;;;;;0.60;0.60;;;16.80;99.90;;;;;;5090307;28;20035;-67
2022/12/31 09:45:54;;;;;;;1.50;0.35;;;16.90;99.90;;;;;;5086517;28;20031;-67
2022/12/31 09:48:46;;;;;;;3.08;0.55;;;17.00;99.90;;;;;;5081889;28;20050;-67
2022/12/31 09:51:20;;;;;;;0.93;0.40;;;17.10;99.90;;;;;;5091561;28;20445;-68
2022/12/31 09:54:15;;;;;;;1.27;0.38;;;17.20;99.90;;;;;;5088921;28;20043;-68
2022/12/31 09:57:05;;;;;;;0.52;0.50;;;17.30;99.90;;;;;;5083157;28;20384;-68
2022/12/31 09:59:44;;;;;;;2.40;0.95;;;17.30;99.90;;;;;;5090704;28;20496;-67
2022/12/31 10:02:42;;;;;;;0.75;0.60;;;17.40;99.90;;;;;;5089496;28;20033;-68
2022/12/31 10:05:08;;;;;;;1.13;0.50;;;;;;;;;;5091492;28;20099;-67
2022/12/31 10:07:49;;;;;;;1.02;0.50;;;;;;;;;;5087744;28;20162;-67
2022/12/31 10:10:15;;;;;;;1.48;0.57;;;;;;;;;;5090346;28;20012;-67
2022/12/31 10:12:50;;;;;;;1.23;0.50;;;;;;;;;;5090092;28;20479;-68
2022/12/31 10:15:19;;;;;;;0.73;0.45;;;;;;;;;;5091618;28;20532;-68
2022/12/31 10:17:58;;;;;;;2.75;0.50;;;;;;;;;;5090226;28;20466;-68
2022/12/31 10:20:24;;;;;;;1.85;0.50;;;;;;;;;;5078016;28;20529;-68
2022/12/31 10:23:02;;;;;;;0.60;0.35;;;;;;;;;;5083049;28;20080;-68
2022/12/31 10:25:50;;;;;;;0.52;0.50;;;;;;;;;;5086979;28;20028;-68
2022/12/31 10:28:35;;;;;;;1.00;0.32;;;;;;;;;;5082991;28;20419;-68
2022/12/31 10:31:06;;;;;;;0.73;0.45;;;;;;;;;;5091231;28;20028;-68
2022/12/31 10:33:41;;;;;;;0.52;0.52;;;;;;;;;;5089227;28;20461;-67
2022/12/31 10:36:30;;;;;;;0.38;0.38;;;;;;;;;;5091169;28;20054;-67
2022/12/31 10:39:07;;;;;;;0.30;0.30;;;;;;;;;;5084531;28;20017;-66
2022/12/31 10:41:36;;;;;;;0.55;0.40;;;;;;;;;;5087342;28;20025;-67
2022/12/31 10:44:35;;;;;;;1.98;0.50;;;;;;;;;;5088365;28;20765;-68
2022/12/31 10:47:16;;;;;;;2.08;0.57;;;;;;;;;;5044493;28;20043;-66
2022/12/31 10:49:42;;;;;;;2.50;0.57;;;;;;;;;;5088114;28;20063;-68
2022/12/31 10:52:41;;;;;;;1.00;0.55;;;18.20;99.90;;;;;;5089108;28;20052;-69
2022/12/31 10:55:23;;;;;;;1.40;0.43;;;18.20;99.90;;;;;;5088854;28;20474;-68
2022/12/31 10:58:12;;;;;;;0.88;0.47;;;18.30;99.90;;;;;;5086851;28;20032;-68
2022/12/31 11:00:53;;;;;;;0.40;0.40;;;18.20;99.90;;;;;;5087138;28;20085;-67
2022/12/31 11:03:49;;;;;;;0.40;0.38;;;18.30;99.90;;;;;;5088805;28;20419;-68
2022/12/31 11:06:48;;;;;;;3.17;0.40;;;18.40;99.90;;;;;;5093138;28;20048;-70
2022/12/31 11:09:40;;;;;;;0.90;0.50;;;18.40;99.90;;;;;;5091812;28;20035;-70
2022/12/31 11:12:34;;;;;;;0.73;0.38;;;18.40;99.90;;;;;;5092847;28;20028;-69
2022/12/31 11:15:26;;;;;;;2.45;0.30;;;18.50;99.90;;;;;;5092170;28;20024;-67
2022/12/31 11:18:19;;;;;;;0.70;0.50;;;18.50;99.90;;;;;;5089937;28;20027;-68
2022/12/31 11:21:14;;;;;;;1.65;0.90;;;18.50;99.90;;;;;;5091821;28;20032;-68
2022/12/31 11:23:54;;;;;;;0.90;0.40;;;18.60;99.90;;;;;;5089411;28;20381;-67
2022/12/31 11:26:43;;;;;;;1.17;0.57;;;18.70;99.90;;;;;;5092287;28;20027;-67
2022/12/31 11:29:28;;;;;;;0.63;0.47;;;18.70;99.90;;;;;;5090347;28;20369;-68
2022/12/31 11:32:00;;;;;;;2.38;0.40;;;18.80;99.90;;;;;;5090627;28;20729;-68
2022/12/31 11:34:48;;;;;;;0.65;0.35;;;18.80;99.90;;;;;;5090839;28;20481;-68
2022/12/31 11:37:26;;;;;;;2.15;0.45;;;18.90;99.90;;;;;;5091377;28;20439;-70
2022/12/31 11:40:12;;;;;;;1.60;0.35;;;18.80;99.90;;;;;;5089991;28;20012;-70
2022/12/31 11:42:57;;;;;;;0.57;0.50;;;18.90;99.90;;;;;;5090423;28;20051;-69
2022/12/31 11:45:32;;;;;;;0.63;0.40;;;18.90;99.90;;;;;;5092067;28;20481;-71
2022/12/31 11:48:24;;;;;;;1.00;0.43;;;19.00;99.90;;;;;;5072462;28;20424;-70
2022/12/31 11:51:27;;;;;;;0.30;0.30;;;19.00;99.90;;;;;;5088164;28;20016;-71
2022/12/31 11:54:20;;;;;;;0.88;0.43;;;19.00;99.90;;;;;;5089132;28;20036;-70
2022/12/31 11:57:30;;;;;;;0.75;0.47;;;19.10;99.90;;;;;;5091218;28;20035;-68
2022/12/31 12:00:02;;;;;;;0.52;0.38;;;19.10;99.90;;;;;;5082016;28;20046;-68
2022/12/31 12:02:37;;;;;;;1.33;0.47;;;19.10;99.90;;;;;;5092840;28;20028;-68
2022/12/31 12:05:08;;;;;;;0.93;0.60;;;19.20;99.90;;;;;;5092741;28;20101;-69
2022/12/31 12:07:34;;;;;;;0.95;0.65;;;19.20;99.90;;;;;;5087471;28;20034;-68
2022/12/31 12:10:05;;;;;;;0.75;0.73;;;19.20;99.90;;;;;;5092362;28;20024;-70
2022/12/31 12:12:39;;;;;;;0.75;0.68;;;19.20;99.90;;;;;;5089572;28;20158;-68
2022/12/31 12:15:09;;;;;;;0.43;0.43;;;19.20;99.90;;;;;;5091624;28;20036;-68
2022/12/31 12:17:36;;;;;;;0.75;0.52;;;19.20;99.90;;;;;;5090892;28;20032;-68
2022/12/31 12:20:13;;;;;;;0.30;0.30;;;19.30;99.90;;;;;;5091568;28;20476;-67
2022/12/31 12:22:51;;;;;;;0.82;0.40;;;19.30;99.90;;;;;;5086979;28;20048;-68
2022/12/31 12:25:22;;;;;;;1.60;0.63;;;19.30;99.90;;;;;;5085178;28;20028;-67
2022/12/31 12:27:48;;;;;;;4.63;1.50;;;19.40;99.90;;;;;;5090505;28;20020;-67
2022/12/31 12:30:23;;;;;;;1.38;0.90;;;19.40;99.90;;;;;;5088758;28;20492;-67
2022/12/31 12:33:01;;;;;;;2.53;0.70;;;19.40;99.90;;;;;;5089779;28;20028;-67
2022/12/31 12:35:31;;;;;;;2.38;1.10;;;19.40;99.90;;;;;;5088701;28;20089;-67
2022/12/31 12:38:03;;;;;;;0.98;0.88;;;19.30;99.90;;;;;;5090072;28;20020;-69
2022/12/31 12:40:29;;;;;;;1.60;1.02;;;19.30;99.90;;;;;;5089187;28;20062;-68
2022/12/31 12:42:55;;;;;;;1.63;0.98;;;19.30;99.90;;;;;;5089350;28;20035;-68
2022/12/31 12:45:24;;;;;;;3.42;0.40;;;19.30;99.90;;;;;;5090991;28;20028;-69
2022/12/31 12:47:58;;;;;;;0.95;0.57;;;19.30;99.90;;;;;;5090010;28;20217;-69
2022/12/31 12:50:35;;;;;;;1.17;0.88;;;19.30;99.90;;;;;;5089365;28;20077;-69
2022/12/31 12:53:31;;;;;;;0.55;0.50;;;19.30;99.90;;;;;;5087719;28;20060;-67
2022/12/31 12:56:07;;;;;;;1.02;0.60;;;19.40;99.90;;;;;;5090425;28;20047;-70
2022/12/31 12:58:58;;;;;;;0.50;0.50;;;19.40;99.90;;;;;;5086838;28;20032;-70
2022/12/31 13:01:41;;;;;;;0.85;0.47;;;19.40;99.90;;;;;;5089373;28;20534;-68
2022/12/31 13:04:57;;;;;;;1.02;0.30;;;19.40;99.90;;;;;;5089087;28;20041;-70
2022/12/31 13:07:50;;;;;;;0.60;0.30;;;19.40;99.90;;;;;;5046074;28;20150;-70
2022/12/31 13:10:43;;;;;;;1.17;0.30;;;19.50;99.90;;;;;;5090945;28;20059;-70
2022/12/31 13:13:21;;;;;;;0.38;0.30;;;19.50;99.90;;;;;;5088906;28;20032;-70
2022/12/31 13:16:00;;;;;;;0.57;0.40;;;19.50;99.90;;;;;;5085127;28;20115;-70
2022/12/31 13:18:52;;;;;;;0.75;0.52;;;19.50;99.90;;;;;;5089013;28;20488;-69
2022/12/31 13:21:36;;;;;;;0.77;0.63;;;19.40;99.90;;;;;;5088788;28;20024;-71
2022/12/31 13:24:21;;;;;;;0.30;0.30;;;19.30;99.90;;;;;;5083851;28;20127;-68
2022/12/31 13:27:01;;;;;;;0.50;0.30;;;19.40;99.90;;;;;;5088526;28;20020;-68
2022/12/31 13:29:31;;;;;;;0.45;0.40;;;19.30;99.90;;;;;;5088583;28;20020;-64
2022/12/31 13:32:01;;;;;;;0.35;0.30;;;19.30;99.90;;;;;;5086872;28;20043;-68
2022/12/31 13:34:32;;;;;;;0.63;0.40;;;19.30;99.90;;;;;;5089398;28;20489;-69
2022/12/31 13:37:05;;;;;;;1.70;0.80;;;19.30;99.90;;;;;;5089814;28;20020;-71